If you wish to contribute or participate in the discussions about articles you are invited to join SKYbrary as a registered user

 Actions

Albury Airport

From SKYbrary Wiki

YMAY
Airport
ICAO: YMAY – IATA: ABX
Summary
Name Albury Airport
Region Asia and Pacific
Territory Australia AU.gif
Location , New South Wales
Serving Albury
Elevation 164.287 m
539 ft
539 ft164.287 m
Type medium airport
Coordinates 36° 4' 4.01" S, 146° 57' 29.02" E
Runways
Designator Length Width Surface ROPS
7/25 1900 m6,233.596 ft
30 m98.425 ft
ASP /


METAR
Observation YMAY 141900Z AUTO 00000KT 9999 // SCT097 17/16 Q1004
Station Albury Airport
Date/Time 14 December 2018 19:00:00
Wind direction
Wind speed 00 kts
Lowest cloud amount scattered clouds
Temperature 17°C
Dew point 16°C
Humidity 93%
QNH 1004 hPa
Weather condition n/a